Aérodrome :
LOGIN :

S'inscrire | Disclaimer

   EN    FR    IT 

 










Légende :    VFR   VFR Marginal   IFR   IFR Intensif   IFR Très Intensif
Visi : 
Plafond : 
>= 8 km
>= 3000ft
5 à 8 km
1000 à 3000 ft
1500m à 5 km
500 à 1000 ft
800 à 1500m
200 à 500 ft
< 800m
< 200 ft
Symboles :   Orages  Brouillard  Fortes neiges  Fortes précipitations  Vent > 20 kt
SIGMETs :   Divers  Orages  Givrage  Turbulence  Onde Orograph.  Cendres Volcan.







- Altitude de l'aérodrome : 290 ft
- Code IATA : LAI
- Voir les cartes d'approche


LFRO - Lannion

DERNIER METAR :
  • 201900Z AUTO 20006KT CAVOK 10/08 Q1019 NOSIG

METARs EXPIRÉS :
  • 201830Z AUTO 19005KT CAVOK 10/08 Q1019 NOSIG
  • 201800Z AUTO 19005KT 160V230 CAVOK 10/08 Q1019 NOSIG
  • 201730Z AUTO 20005KT CAVOK 10/08 Q1019 NOSIG
  • 201700Z AUTO 19006KT CAVOK 10/08 Q1019 NOSIG
  • 201630Z AUTO 20008KT CAVOK 11/08 Q1019 NOSIG

TAF TAF LFRO
Valide du 20 à 18h jusqu'au 21 à 18h UTC


201700Z 2018/2118 20012KT CAVOK
BECMG 2021/2024 OVC010
BECMG 2111/2114 20018G30KT
TEMPO 2115/2118 BKN010
Pas de NOTAMs connus pour ce terrain.



MET'MAP, la Météo Aéronautique d'un coup d'oeil ! - Copyright ORBIFLY Décembre 2007 - Disclaimer

ORBIFLY MET'MAP TEAM :

Programmation & Développement : Alexandra Zaïnal
Conception & Développement : Baudouin d'Aumeries
Co-Programmation & Développement : Marc-Olivier Méhu
Soutien technique & logistique : Manuel Goepfert

Contact : metmap@orbifly.com




SOURCES & CREDITS :

   NOAA